createdAt,value
2022-08-01T00:00:03.282Z,64.15
2022-08-01T00:02:29.962Z,63.91
2022-08-01T00:04:56.504Z,64.34
2022-08-01T00:07:23.051Z,64.28
2022-08-01T00:09:49.810Z,64.53
2022-08-01T00:12:16.304Z,64.24
2022-08-01T00:14:42.973Z,64.24
2022-08-01T00:17:09.455Z,64.46
2022-08-01T00:19:36.012Z,64.36
2022-08-01T00:22:02.627Z,64.75
2022-08-01T00:24:29.267Z,64.57
2022-08-01T00:26:55.817Z,64.39
2022-08-01T00:30:10.186Z,64.70
2022-08-01T00:32:09.399Z,64.99
2022-08-01T00:34:36.151Z,64.85
2022-08-01T00:37:02.691Z,64.87
2022-08-01T00:39:29.430Z,65.15
2022-08-01T00:41:59.653Z,65.02
2022-08-01T00:44:27.625Z,64.92
2022-08-01T00:46:54.146Z,65.11
2022-08-01T00:49:20.708Z,65.10
2022-08-01T00:51:47.289Z,65.31
2022-08-01T00:54:16.637Z,65.24
2022-08-01T00:56:44.406Z,65.08
2022-08-01T00:59:13.384Z,65.25
2022-08-01T01:01:46.486Z,65.09
2022-08-01T01:04:13.404Z,65.10
2022-08-01T01:06:52.127Z,64.70
2022-08-01T01:09:31.480Z,64.58
2022-08-01T01:12:13.090Z,64.56
2022-08-01T01:14:47.646Z,64.68
2022-08-01T01:17:49.527Z,64.59
2022-08-01T01:20:11.981Z,64.79
2022-08-01T01:23:08.009Z,64.85
2022-08-01T01:26:05.505Z,64.86
2022-08-01T01:28:56.761Z,64.91
2022-08-01T01:31:25.385Z,64.89
2022-08-01T01:33:54.314Z,65.23
2022-08-01T01:36:22.797Z,65.26
2022-08-01T01:38:51.926Z,65.63
2022-08-01T01:41:19.758Z,65.81
2022-08-01T01:43:47.802Z,65.70
2022-08-01T01:46:18.463Z,65.72
2022-08-01T01:48:47.530Z,65.88
2022-08-01T01:51:15.867Z,66.07
2022-08-01T01:53:44.405Z,66.30
2022-08-01T01:56:12.501Z,66.22
2022-08-01T01:58:40.246Z,66.34
2022-08-01T02:01:14.333Z,66.34
2022-08-01T02:03:43.552Z,66.43
2022-08-01T02:06:13.006Z,66.28
2022-08-01T02:08:42.575Z,66.22
2022-08-01T02:11:22.520Z,66.35
2022-08-01T02:13:59.523Z,66.04
2022-08-01T02:16:29.482Z,66.07
2022-08-01T02:18:59.147Z,66.42
2022-08-01T02:21:33.182Z,66.09
2022-08-01T02:24:09.422Z,66.17
2022-08-01T02:26:40.312Z,66.29
2022-08-01T02:29:11.355Z,66.24
2022-08-01T02:31:42.145Z,66.10
2022-08-01T02:34:11.439Z,66.27
2022-08-01T02:36:39.256Z,66.26
2022-08-01T02:39:17.245Z,66.04
2022-08-01T02:41:47.903Z,65.92
2022-08-01T02:44:24.570Z,66.46
2022-08-01T02:46:56.454Z,65.98
2022-08-01T02:49:25.123Z,66.20
2022-08-01T02:51:53.930Z,66.58
2022-08-01T02:54:23.720Z,66.16
2022-08-01T02:56:52.371Z,66.56
2022-08-01T02:59:22.489Z,66.48
2022-08-01T03:01:50.830Z,66.64
2022-08-01T03:04:19.754Z,66.88
2022-08-01T03:06:47.995Z,66.66
2022-08-01T03:09:16.827Z,66.82
2022-08-01T03:11:45.197Z,66.91
2022-08-01T03:14:13.520Z,66.89
2022-08-01T03:16:43.070Z,66.76
2022-08-01T03:19:11.946Z,66.79
2022-08-01T03:21:39.965Z,66.67
2022-08-01T03:24:08.860Z,66.99
2022-08-01T03:26:37.701Z,66.71
2022-08-01T03:29:10.818Z,66.97
2022-08-01T03:31:39.340Z,66.87
2022-08-01T03:34:07.204Z,67.02
2022-08-01T03:36:38.416Z,66.77
2022-08-01T03:39:10.326Z,66.93
2022-08-01T03:41:41.978Z,66.88
2022-08-01T03:44:23.788Z,66.85
2022-08-01T03:46:57.214Z,66.91
2022-08-01T03:49:32.833Z,67.00
2022-08-01T03:52:03.575Z,66.71
2022-08-01T03:54:34.667Z,66.92
2022-08-01T03:57:02.947Z,67.14
2022-08-01T03:59:31.091Z,67.18
2022-08-01T04:01:58.839Z,66.84
2022-08-01T04:04:25.588Z,67.04
2022-08-01T04:06:54.988Z,67.00
2022-08-01T04:09:22.782Z,66.97
2022-08-01T04:11:50.073Z,67.08
2022-08-01T04:14:16.709Z,66.94
2022-08-01T04:16:43.238Z,67.05
2022-08-01T04:19:09.761Z,67.11
2022-08-01T04:21:36.997Z,67.08
2022-08-01T04:24:10.142Z,66.77
2022-08-01T04:26:39.255Z,66.64
2022-08-01T04:29:08.803Z,66.83
2022-08-01T04:31:37.134Z,66.75
2022-08-01T04:34:06.690Z,66.54
2022-08-01T04:36:36.114Z,66.71
2022-08-01T04:39:04.832Z,66.71
2022-08-01T04:41:33.329Z,66.56
2022-08-01T04:44:00.458Z,66.51
2022-08-01T04:46:29.410Z,66.23
2022-08-01T04:48:56.604Z,66.16
2022-08-01T04:51:23.344Z,66.10
2022-08-01T04:53:52.043Z,66.00
2022-08-01T04:56:20.326Z,65.98
2022-08-01T04:58:46.879Z,66.23
2022-08-01T05:01:14.656Z,65.95
2022-08-01T05:03:41.214Z,66.24
2022-08-01T05:06:07.820Z,65.84
2022-08-01T05:08:34.354Z,66.10
2022-08-01T05:11:02.152Z,65.98
2022-08-01T05:13:28.609Z,65.74
2022-08-01T05:15:55.077Z,65.49
2022-08-01T05:18:27.793Z,66.00
2022-08-01T05:20:58.099Z,65.66
2022-08-01T05:23:38.391Z,65.90
2022-08-01T05:26:09.835Z,65.79
2022-08-01T05:28:36.745Z,65.90
2022-08-01T05:31:04.451Z,65.84
2022-08-01T05:33:30.968Z,66.08
2022-08-01T05:35:57.403Z,65.92
2022-08-01T05:38:23.915Z,66.03
2022-08-01T05:40:50.466Z,65.76
2022-08-01T05:43:17.263Z,65.68
2022-08-01T05:45:43.885Z,65.42
2022-08-01T05:48:10.423Z,65.58
2022-08-01T05:50:36.923Z,65.50
2022-08-01T05:53:03.431Z,66.04
2022-08-01T05:55:30.067Z,66.03
2022-08-01T05:57:56.677Z,66.26
2022-08-01T06:00:23.249Z,66.08
2022-08-01T06:02:49.715Z,65.69
2022-08-01T06:05:16.588Z,65.89
2022-08-01T06:07:43.141Z,65.72
2022-08-01T06:10:09.959Z,65.44
2022-08-01T06:12:37.529Z,64.93
2022-08-01T06:15:05.726Z,65.03
2022-08-01T06:17:32.325Z,64.79
2022-08-01T06:19:58.919Z,65.15
2022-08-01T06:22:25.690Z,65.32
2022-08-01T06:24:52.234Z,65.08
2022-08-01T06:27:21.616Z,64.91
2022-08-01T06:29:53.479Z,64.91
2022-08-01T06:32:27.034Z,64.49
2022-08-01T06:34:55.253Z,64.36
2022-08-01T06:37:22.573Z,63.74
2022-08-01T06:39:50.533Z,63.77
2022-08-01T06:42:17.737Z,63.66
2022-08-01T06:44:44.265Z,63.90
2022-08-01T06:47:10.768Z,64.11
2022-08-01T06:49:37.378Z,63.91
2022-08-01T06:52:04.964Z,64.13
2022-08-01T06:54:31.852Z,63.96
2022-08-01T06:56:58.389Z,63.66
2022-08-01T06:59:24.898Z,63.80
2022-08-01T07:01:51.361Z,63.46
2022-08-01T07:04:17.903Z,63.05
2022-08-01T07:06:44.317Z,62.37
2022-08-01T07:09:14.192Z,62.67
2022-08-01T07:11:41.615Z,62.25
2022-08-01T07:14:08.236Z,61.99
2022-08-01T07:16:34.796Z,62.70
2022-08-01T07:19:01.302Z,62.03
2022-08-01T07:21:39.709Z,61.65
2022-08-01T07:24:13.946Z,61.69
2022-08-01T07:26:53.218Z,60.97
2022-08-01T07:29:27.799Z,60.46
2022-08-01T07:31:56.402Z,60.59
2022-08-01T07:34:24.537Z,60.34
2022-08-01T07:36:51.979Z,60.61
2022-08-01T07:39:18.671Z,60.82
2022-08-01T07:42:04.773Z,60.53
2022-08-01T07:44:31.891Z,60.65
2022-08-01T07:46:58.338Z,60.66
2022-08-01T07:49:24.830Z,60.40
2022-08-01T07:52:04.168Z,60.08
2022-08-01T07:54:34.648Z,59.82
2022-08-01T07:57:02.427Z,60.22
2022-08-01T07:59:28.968Z,60.10
2022-08-01T08:01:55.445Z,60.66
2022-08-01T08:04:21.974Z,61.07
2022-08-01T08:06:48.681Z,60.48
2022-08-01T08:09:16.177Z,60.88
2022-08-01T08:11:48.294Z,61.31
2022-08-01T08:14:16.498Z,61.91
2022-08-01T08:16:43.858Z,61.56
2022-08-01T08:19:10.857Z,61.64
2022-08-01T08:21:38.726Z,61.94
2022-08-01T08:24:25.888Z,62.02
2022-08-01T08:26:59.100Z,62.08
2022-08-01T08:29:27.355Z,61.73
2022-08-01T08:31:55.755Z,61.41
2022-08-01T08:34:23.590Z,60.70
2022-08-01T08:36:50.420Z,59.95
2022-08-01T08:39:19.675Z,59.94
2022-08-01T08:41:49.367Z,59.76
2022-08-01T08:44:18.125Z,59.80
2022-08-01T08:46:52.512Z,59.21
2022-08-01T08:49:25.319Z,59.65
2022-08-01T08:51:53.463Z,58.89
2022-08-01T08:54:31.224Z,59.10
2022-08-01T08:56:59.826Z,58.53
2022-08-01T08:59:27.642Z,57.92
2022-08-01T09:01:54.190Z,58.15
2022-08-01T09:04:23.976Z,57.93
2022-08-01T09:06:54.033Z,57.53
2022-08-01T09:09:20.544Z,57.54
2022-08-01T09:11:57.023Z,57.15
2022-08-01T09:14:25.115Z,56.39
2022-08-01T09:17:11.730Z,56.04
2022-08-01T09:19:42.206Z,55.07
2022-08-01T09:22:18.992Z,55.00
2022-08-01T09:25:11.786Z,54.67
2022-08-01T09:27:44.412Z,54.25
2022-08-01T09:30:23.955Z,54.18
2022-08-01T09:33:01.615Z,53.78
2022-08-01T09:35:43.257Z,53.96
2022-08-01T09:38:40.058Z,54.40
2022-08-01T09:41:08.369Z,54.61
2022-08-01T09:43:35.834Z,54.15
2022-08-01T09:46:12.869Z,54.30
2022-08-01T09:48:40.632Z,54.17
2022-08-01T09:51:09.742Z,54.03
2022-08-01T09:53:51.408Z,54.23
2022-08-01T09:56:20.149Z,54.62
2022-08-01T09:59:05.011Z,54.80
2022-08-01T10:01:47.832Z,54.24
2022-08-01T10:04:22.968Z,54.56
2022-08-01T10:06:55.603Z,53.63
2022-08-01T10:09:39.993Z,53.46
2022-08-01T10:12:03.272Z,53.04
2022-08-01T10:14:30.945Z,52.96
2022-08-01T10:17:03.029Z,53.27
2022-08-01T10:19:33.451Z,52.59
2022-08-01T10:22:00.583Z,51.93
2022-08-01T10:24:30.299Z,52.24
2022-08-01T10:27:09.293Z,51.88
2022-08-01T10:29:45.543Z,52.06
2022-08-01T10:32:14.390Z,51.97
2022-08-01T10:34:44.840Z,51.96
2022-08-01T10:37:13.666Z,51.81
2022-08-01T10:39:40.871Z,51.16
2022-08-01T10:42:15.562Z,51.57
2022-08-01T10:44:43.481Z,50.76
2022-08-01T10:47:14.685Z,51.02
2022-08-01T10:49:57.431Z,50.16
2022-08-01T10:52:25.072Z,49.51
2022-08-01T10:55:12.284Z,48.81
2022-08-01T10:57:44.233Z,49.38
2022-08-01T11:00:21.437Z,49.31
2022-08-01T11:03:14.986Z,49.27
2022-08-01T11:05:44.667Z,49.20
2022-08-01T11:08:23.930Z,48.92
2022-08-01T11:11:02.619Z,48.82
2022-08-01T11:14:01.776Z,49.13
2022-08-01T11:16:33.345Z,49.07
2022-08-01T11:18:59.903Z,48.94
2022-08-01T11:22:01.485Z,48.83
2022-08-01T11:24:50.635Z,48.32
2022-08-01T11:27:31.423Z,47.15
2022-08-01T11:30:09.154Z,46.78
2022-08-01T11:33:11.149Z,46.99
2022-08-01T11:35:40.254Z,46.50
2022-08-01T11:38:31.079Z,46.32
2022-08-01T11:41:18.708Z,46.15
2022-08-01T11:44:05.701Z,45.95
2022-08-01T11:46:59.997Z,46.06
2022-08-01T11:49:30.942Z,45.75
2022-08-01T11:52:17.427Z,45.29
2022-08-01T11:54:47.099Z,44.83
2022-08-01T11:57:34.281Z,45.18
2022-08-01T12:00:08.335Z,44.73
2022-08-01T12:02:36.030Z,43.88
2022-08-01T12:05:12.112Z,43.54
2022-08-01T12:07:39.772Z,42.97
2022-08-01T12:10:10.404Z,43.22
2022-08-01T12:12:38.406Z,42.46
2022-08-01T12:15:09.959Z,43.16
2022-08-01T12:17:58.085Z,42.71
2022-08-01T12:20:30.315Z,42.52
2022-08-01T12:22:58.625Z,42.31
2022-08-01T12:25:25.175Z,42.39
2022-08-01T12:27:56.196Z,41.83
2022-08-01T12:30:24.931Z,42.04
2022-08-01T12:32:53.789Z,41.22
2022-08-01T12:35:25.569Z,41.54
2022-08-01T12:38:04.560Z,41.43
2022-08-01T12:40:33.696Z,40.94
2022-08-01T12:43:03.265Z,41.12
2022-08-01T12:45:56.330Z,40.27
2022-08-01T12:48:25.747Z,40.90
2022-08-01T12:50:53.510Z,40.75
2022-08-01T12:53:21.472Z,41.21
2022-08-01T12:55:58.322Z,41.49
2022-08-01T12:58:33.080Z,41.67
2022-08-01T13:01:10.659Z,41.57
2022-08-01T13:03:38.321Z,40.78
2022-08-01T13:06:12.330Z,41.31
2022-08-01T13:08:39.440Z,40.50
2022-08-01T13:11:10.639Z,40.45
2022-08-01T13:13:51.469Z,40.62
2022-08-01T13:16:34.357Z,40.24
2022-08-01T13:19:05.731Z,39.52
2022-08-01T13:21:52.314Z,39.64
2022-08-01T13:24:24.774Z,39.96
2022-08-01T13:26:52.486Z,39.48
2022-08-01T13:29:21.729Z,39.49
2022-08-01T13:31:48.744Z,39.67
2022-08-01T13:34:16.182Z,39.44
2022-08-01T13:36:49.066Z,39.14
2022-08-01T13:39:34.838Z,38.78
2022-08-01T13:42:01.438Z,39.36
2022-08-01T13:44:27.975Z,39.12
2022-08-01T13:46:54.390Z,39.07
2022-08-01T13:49:22.824Z,39.32
2022-08-01T13:51:51.017Z,39.15
2022-08-01T13:54:18.135Z,39.54
2022-08-01T13:56:44.650Z,39.64
2022-08-01T13:59:11.156Z,40.02
2022-08-01T14:01:37.683Z,40.28
2022-08-01T14:04:05.279Z,40.08
2022-08-01T14:06:32.841Z,40.14
2022-08-01T14:08:59.357Z,39.96
2022-08-01T14:11:28.499Z,39.26
2022-08-01T14:14:03.371Z,39.87
2022-08-01T14:16:30.843Z,39.91
2022-08-01T14:18:57.322Z,39.28
2022-08-01T14:21:23.802Z,39.05
2022-08-01T14:23:50.218Z,39.04
2022-08-01T14:26:16.689Z,38.84
2022-08-01T14:28:51.878Z,39.06
2022-08-01T14:31:18.734Z,38.43
2022-08-01T14:33:45.156Z,38.36
2022-08-01T14:36:30.092Z,37.89
2022-08-01T14:39:00.038Z,39.43
2022-08-01T14:41:27.161Z,37.67
2022-08-01T14:43:54.551Z,38.13
2022-08-01T14:46:21.120Z,38.23
2022-08-01T14:48:47.666Z,38.43
2022-08-01T14:51:14.198Z,38.95
2022-08-01T14:53:46.540Z,38.64
2022-08-01T14:56:18.458Z,38.29
2022-08-01T14:58:45.022Z,38.05
2022-08-01T15:01:11.606Z,38.23
2022-08-01T15:03:38.343Z,38.62
2022-08-01T15:06:05.073Z,38.65
2022-08-01T15:08:33.195Z,38.37
2022-08-01T15:10:59.771Z,38.51
2022-08-01T15:13:26.193Z,38.25
2022-08-01T15:15:52.666Z,38.27
2022-08-01T15:18:19.102Z,39.02
2022-08-01T15:20:46.083Z,38.92
2022-08-01T15:23:12.620Z,38.73
2022-08-01T15:25:40.470Z,38.88
2022-08-01T15:28:12.519Z,38.74
2022-08-01T15:30:39.879Z,38.54
2022-08-01T15:33:06.611Z,37.91
2022-08-01T15:35:33.462Z,37.80
2022-08-01T15:38:00.021Z,37.97
2022-08-01T15:40:27.682Z,37.65
2022-08-01T15:42:54.166Z,37.83
2022-08-01T15:45:45.749Z,37.63
2022-08-01T15:48:08.429Z,37.76
2022-08-01T15:50:35.423Z,37.42
2022-08-01T15:53:01.923Z,37.49
2022-08-01T15:55:28.455Z,37.47
2022-08-01T15:57:54.879Z,37.91
2022-08-01T16:00:21.486Z,37.92
2022-08-01T16:02:47.956Z,37.72
2022-08-01T16:05:17.201Z,37.08
2022-08-01T16:07:59.933Z,37.27
2022-08-01T16:10:29.493Z,36.19
2022-08-01T16:12:56.021Z,35.79
2022-08-01T16:15:22.504Z,35.13
2022-08-01T16:17:49.018Z,35.60
2022-08-01T16:20:16.196Z,35.44
2022-08-01T16:22:42.669Z,35.26
2022-08-01T16:25:11.481Z,35.22
2022-08-01T16:27:39.274Z,35.23
2022-08-01T16:30:06.462Z,35.57
2022-08-01T16:32:39.743Z,35.78
2022-08-01T16:35:09.486Z,35.93
2022-08-01T16:37:36.386Z,35.76
2022-08-01T16:40:03.901Z,36.04
2022-08-01T16:42:30.347Z,35.98
2022-08-01T16:44:56.888Z,36.15
2022-08-01T16:47:23.368Z,35.88
2022-08-01T16:49:49.943Z,35.47
2022-08-01T16:52:17.102Z,35.84
2022-08-01T16:54:43.616Z,35.95
2022-08-01T16:57:11.011Z,36.06
2022-08-01T16:59:41.257Z,36.55
2022-08-01T17:02:10.888Z,36.28
2022-08-01T17:04:37.449Z,36.04
2022-08-01T17:07:04.228Z,35.71
2022-08-01T17:09:30.893Z,35.62
2022-08-01T17:11:57.346Z,35.30
2022-08-01T17:14:24.682Z,35.07
2022-08-01T17:16:52.088Z,35.30
2022-08-01T17:19:18.934Z,35.14
2022-08-01T17:21:45.564Z,35.01
2022-08-01T17:24:16.629Z,35.16
2022-08-01T17:26:43.268Z,35.05
2022-08-01T17:29:09.815Z,35.17
2022-08-01T17:31:36.274Z,35.06
2022-08-01T17:34:02.795Z,35.28
2022-08-01T17:36:29.332Z,35.22
2022-08-01T17:38:55.811Z,35.63
2022-08-01T17:41:22.234Z,35.83
2022-08-01T17:43:48.718Z,36.15
2022-08-01T17:46:15.311Z,36.23
2022-08-01T17:48:42.037Z,36.58
2022-08-01T17:51:08.485Z,36.85
2022-08-01T17:53:35.047Z,37.12
2022-08-01T17:56:05.512Z,37.04
2022-08-01T17:58:49.600Z,37.65
2022-08-01T18:01:18.382Z,37.65
2022-08-01T18:03:45.500Z,37.81
2022-08-01T18:06:14.287Z,37.87
2022-08-01T18:08:42.147Z,37.92
2022-08-01T18:11:09.245Z,38.03
2022-08-01T18:13:35.980Z,38.27
2022-08-01T18:16:06.776Z,38.27
2022-08-01T18:18:34.174Z,38.49
2022-08-01T18:21:01.871Z,38.49
2022-08-01T18:23:28.607Z,38.91
2022-08-01T18:25:55.234Z,38.50
2022-08-01T18:28:31.216Z,38.94
2022-08-01T18:31:00.097Z,38.73
2022-08-01T18:33:26.598Z,38.83
2022-08-01T18:35:53.943Z,39.11
2022-08-01T18:38:20.753Z,39.77
2022-08-01T18:40:50.879Z,39.25
2022-08-01T18:43:17.322Z,39.74
2022-08-01T18:45:44.019Z,39.75
2022-08-01T18:48:11.782Z,39.62
2022-08-01T18:50:39.731Z,39.72
2022-08-01T18:53:06.346Z,39.47
2022-08-01T18:55:32.796Z,40.01
2022-08-01T18:57:59.232Z,39.38
2022-08-01T19:00:25.914Z,39.80
2022-08-01T19:02:53.109Z,40.10
2022-08-01T19:05:19.743Z,39.97
2022-08-01T19:08:04.767Z,40.22
2022-08-01T19:10:32.729Z,40.19
2022-08-01T19:13:00.323Z,40.00
2022-08-01T19:15:26.854Z,40.13
2022-08-01T19:17:53.343Z,40.33
2022-08-01T19:20:19.827Z,40.10
2022-08-01T19:22:46.292Z,40.51
2022-08-01T19:25:15.040Z,40.61
2022-08-01T19:27:47.772Z,40.71
2022-08-01T19:30:16.463Z,40.77
2022-08-01T19:32:48.728Z,40.99
2022-08-01T19:35:17.171Z,41.21
2022-08-01T19:37:50.762Z,41.08
2022-08-01T19:40:27.194Z,41.42
2022-08-01T19:42:56.490Z,41.05
2022-08-01T19:45:23.502Z,41.26
2022-08-01T19:47:57.050Z,40.98
2022-08-01T19:50:26.524Z,41.23
2022-08-01T19:52:54.832Z,41.57
2022-08-01T19:55:23.375Z,41.65
2022-08-01T19:58:10.485Z,41.64
2022-08-01T20:00:39.722Z,41.61
2022-08-01T20:03:08.083Z,41.83
2022-08-01T20:05:36.484Z,41.89
2022-08-01T20:08:03.426Z,42.05
2022-08-01T20:10:31.754Z,42.38
2022-08-01T20:12:58.301Z,42.62
2022-08-01T20:15:25.333Z,42.75
2022-08-01T20:17:51.798Z,43.25
2022-08-01T20:20:18.397Z,43.24
2022-08-01T20:22:49.094Z,43.56
2022-08-01T20:25:20.384Z,43.57
2022-08-01T20:27:47.602Z,43.79
2022-08-01T20:30:14.463Z,43.65
2022-08-01T20:32:41.106Z,43.87
2022-08-01T20:35:09.062Z,43.84
2022-08-01T20:38:06.628Z,43.58
2022-08-01T20:40:28.235Z,43.81
2022-08-01T20:42:55.905Z,43.72
2022-08-01T20:45:27.363Z,43.70
2022-08-01T20:47:55.626Z,43.63
2022-08-01T20:50:54.399Z,43.81
2022-08-01T20:53:24.401Z,43.69
2022-08-01T20:56:23.443Z,43.61
2022-08-01T20:59:52.032Z,43.68
2022-08-01T21:02:24.628Z,43.67
2022-08-01T21:04:57.916Z,43.64
2022-08-01T21:07:27.137Z,43.81
2022-08-01T21:10:09.717Z,43.97
2022-08-01T21:12:44.824Z,43.89
2022-08-01T21:15:15.378Z,44.08
2022-08-01T21:18:09.627Z,44.10
2022-08-01T21:20:40.342Z,44.20
2022-08-01T21:23:22.479Z,44.26
2022-08-01T21:25:49.178Z,44.48
2022-08-01T21:28:15.959Z,44.62
2022-08-01T21:30:53.760Z,44.55
2022-08-01T21:33:24.255Z,44.73
2022-08-01T21:35:55.672Z,44.56
2022-08-01T21:38:26.417Z,44.53
2022-08-01T21:40:55.338Z,44.77
2022-08-01T21:43:22.998Z,44.70
2022-08-01T21:45:57.374Z,44.73
2022-08-01T21:48:26.824Z,44.89
2022-08-01T21:51:10.822Z,44.64
2022-08-01T21:53:47.475Z,44.80
2022-08-01T21:56:31.770Z,44.81
2022-08-01T21:59:10.374Z,44.88
2022-08-01T22:01:53.117Z,45.00
2022-08-01T22:04:28.720Z,44.91
2022-08-01T22:06:56.719Z,45.09
2022-08-01T22:09:24.221Z,45.30
2022-08-01T22:12:01.263Z,45.36
2022-08-01T22:14:29.925Z,45.37
2022-08-01T22:16:58.750Z,45.59
2022-08-01T22:19:41.980Z,45.85
2022-08-01T22:22:44.704Z,45.80
2022-08-01T22:25:01.054Z,46.12
2022-08-01T22:28:03.182Z,46.33
2022-08-01T22:30:17.599Z,46.60
2022-08-01T22:33:15.091Z,46.59
2022-08-01T22:35:33.498Z,46.84
2022-08-01T22:37:59.959Z,46.94
2022-08-01T22:40:28.138Z,47.05
2022-08-01T22:43:02.258Z,47.05
2022-08-01T22:45:53.641Z,47.28
2022-08-01T22:48:36.600Z,47.31
2022-08-01T22:51:09.270Z,47.36
2022-08-01T22:54:02.823Z,47.47
2022-08-01T22:56:33.387Z,47.87
2022-08-01T22:59:02.852Z,47.97
2022-08-01T23:01:30.252Z,48.27
2022-08-01T23:03:59.120Z,48.36
2022-08-01T23:06:42.759Z,48.38
2022-08-01T23:09:09.855Z,48.54
2022-08-01T23:11:38.087Z,48.87
2022-08-01T23:14:04.871Z,48.95
2022-08-01T23:16:31.643Z,48.92
2022-08-01T23:18:59.140Z,49.13
2022-08-01T23:21:27.889Z,49.04
2022-08-01T23:23:55.223Z,49.14
2022-08-01T23:26:26.958Z,49.06
2022-08-01T23:28:54.473Z,49.42
2022-08-01T23:31:24.691Z,49.46
2022-08-01T23:34:07.961Z,49.58
2022-08-01T23:36:35.111Z,49.44
2022-08-01T23:39:01.551Z,49.70
2022-08-01T23:41:28.095Z,49.79
2022-08-01T23:43:54.597Z,49.73
2022-08-01T23:46:21.031Z,50.02
2022-08-01T23:48:47.483Z,49.93
2022-08-01T23:51:24.406Z,49.94
2022-08-01T23:53:51.407Z,50.04
2022-08-01T23:56:20.886Z,50.18
2022-08-01T23:58:51.750Z,50.07
